Latest Weather Observations for Tatura

IDV60801

Issued at 7:35 am EST Thursday 17 April 2014 (issued every 30 minutes, with the page automatically refreshed every 10 minutes)

About weather observations | Map of weather stations | Latest weather observations for VIC | Other Formats
Station Details ID: 081049 Name: TATURA INST SUSTAINABLE AG Lat: -36.44 Lon: 145.27 Height: 114.0 m
Data from the previous 72 hours. | See also: Recent months at Tatura
Date/Time
EST
Temp
°C
App
Temp
°C
Dew
Point
Rel
Hum
%
Delta-T
°C
Wind Press
QNH
hPa
Press
MSL
hPa
Rain
since 9 am
mm
Dir
 
Spd
km/h
Gust
km/h
Spd
kts
Gust
kts
17/07:30am 8.6 8.0 7.5 93 0.5 SSE 0 0 0 0 - - 0.0
17/07:00am 7.4 6.5 6.2 92 0.5 SSE 0 0 0 0 - - 0.0
17/06:30am 6.9 5.9 5.7 92 0.5 CALM 0 0 0 0 - - 0.0
17/06:00am 7.0 6.0 5.8 92 0.5 SSE 0 0 0 0 - - 0.0
17/05:30am 7.0 6.0 5.8 92 0.5 CALM 0 0 0 0 - - 0.0
17/05:00am 7.7 6.9 6.5 92 0.6 CALM 0 0 0 0 - - 0.0
17/04:30am 7.7 6.9 6.5 92 0.6 CALM 0 0 0 0 - - 0.0
17/04:00am 7.8 7.0 6.4 91 0.6 CALM 0 0 0 0 - - 0.0
17/03:30am 8.9 7.0 7.7 92 0.6 SSE 7 9 4 5 - - 0.0
17/03:00am 9.0 6.8 7.8 92 0.6 SSE 9 9 5 5 - - 0.0
17/02:30am 7.8 7.0 6.4 91 0.6 CALM 0 0 0 0 - - 0.0
17/02:00am 7.8 7.0 6.4 91 0.6 CALM 0 0 0 0 - - 0.0
17/01:30am 8.4 7.7 7.0 91 0.7 CALM 0 0 0 0 - - 0.0
17/01:00am 8.5 7.8 7.0 90 0.7 SSE 0 0 0 0 - - 0.0
17/12:30am 8.8 8.1 7.1 89 0.8 CALM 0 0 0 0 - - 0.0
17/12:00am 9.2 8.6 7.3 88 0.9 ENE 0 0 0 0 - - 0.0
 
Date/Time
EST
Temp
°C
App
Temp
°C
Dew
Point
Rel
Hum
%
Delta-T
°C
Wind Press
QNH
hPa
Press
MSL
hPa
Rain
since 9 am
mm
Dir
 
Spd
km/h
Gust
km/h
Spd
kts
Gust
kts
16/11:30pm 9.6 9.1 7.7 88 0.9 CALM 0 0 0 0 - - 0.0
16/11:00pm 10.9 10.7 9.2 89 0.9 CALM 0 0 0 0 - - 0.0
16/10:30pm 10.6 10.3 8.7 88 0.9 CALM 0 0 0 0 - - 0.0
16/10:00pm 10.8 10.5 8.6 86 1.1 CALM 0 0 0 0 - - 0.0
16/09:30pm 11.7 11.6 9.3 85 1.2 CALM 0 0 0 0 - - 0.0
16/09:00pm 12.3 12.3 9.9 85 1.2 CALM 0 0 0 0 - - 0.0
16/08:30pm 11.8 11.6 9.0 83 1.4 CALM 0 0 0 0 - - 0.0
16/08:00pm 12.6 12.5 9.6 82 1.5 CALM 0 0 0 0 - - 0.0
16/07:30pm 13.3 13.2 9.5 78 1.9 CALM 0 0 0 0 - - 0.0
16/07:00pm 14.3 14.2 9.5 73 2.5 CALM 0 0 0 0 - - 0.0
16/06:30pm 15.2 15.2 9.8 70 2.8 CALM 0 0 0 0 - - 0.0
16/06:00pm 16.7 16.6 9.6 63 3.7 CALM 0 0 0 0 - - 0.0
16/05:30pm 18.6 18.4 9.1 54 5.0 CALM 0 0 0 0 - - 0.0
16/05:00pm 20.5 19.3 8.2 45 6.4 WNW 4 9 2 5 - - 0.0
16/04:30pm 19.7 17.9 7.8 46 6.1 SSW 7 9 4 5 - - 0.0
16/04:00pm 20.6 18.5 6.5 40 7.1 SSW 7 11 4 6 - - 0.0
16/03:30pm 21.4 20.0 9.0 45 6.6 W 6 11 3 6 - - 0.0
16/03:00pm 20.0 18.9 8.4 47 6.1 W 4 11 2 6 - - 0.0
16/02:30pm 20.5 19.1 8.8 47 6.2 WSW 6 15 3 8 - - 0.0
16/02:00pm 20.8 18.9 9.1 47 6.2 W 9 13 5 7 - - 0.0
16/01:30pm 21.3 20.1 9.5 47 6.4 NW 6 13 3 7 - - 0.0
16/01:00pm 20.2 18.7 10.6 54 5.2 WSW 9 15 5 8 - - 0.0
16/12:30pm 19.8 17.7 9.7 52 5.4 NNW 11 17 6 9 - - 0.0
16/12:00pm 19.3 18.3 10.3 56 4.9 NW 6 13 3 7 - - 0.0
16/11:30am 18.8 17.8 11.1 61 4.2 NNW 7 13 4 7 - - 0.0
16/11:00am 18.4 17.1 10.0 58 4.5 N 7 15 4 8 - - 0.0
16/10:30am 17.1 14.5 9.3 60 4.1 NNE 13 17 7 9 - - 0.0
16/10:00am 16.4 14.1 9.1 62 3.8 NNE 11 19 6 10 - - 0.0
16/09:30am 15.7 14.6 10.5 71 2.8 E 7 9 4 5 - - 0.0
16/09:00am 14.4 13.4 10.2 76 2.2 ENE 6 9 3 5 - - 0.0
16/08:30am 13.1 13.5 11.2 88 1.0 CALM 0 0 0 0 - - 0.0
16/08:00am 11.4 11.5 10.3 93 0.6 CALM 0 2 0 1 - - 0.0
16/07:30am 8.6 8.0 7.5 93 0.5 CALM 0 0 0 0 - - 0.0
16/07:00am 6.8 5.8 5.6 92 0.5 CALM 0 0 0 0 - - 0.0
16/06:30am 6.8 5.8 5.6 92 0.5 CALM 0 0 0 0 - - 0.0
16/06:00am 7.1 6.2 5.9 92 0.5 CALM 0 0 0 0 - - 0.0
16/05:30am 7.0 4.9 5.8 92 0.5 SW 6 7 3 4 - - 0.0
16/05:00am 7.2 6.2 5.8 91 0.6 CALM 0 0 0 0 - - 0.0
16/04:30am 7.8 7.0 6.3 90 0.7 CALM 0 0 0 0 - - 0.0
16/04:00am 8.9 7.2 7.5 91 0.7 SSE 6 7 3 4 - - 0.0
16/03:30am 9.7 8.0 8.3 91 0.7 SSE 7 9 4 5 - - 0.0
16/03:00am 10.0 8.4 8.6 91 0.7 SSE 7 9 4 5 - - 0.0
16/02:30am 10.2 8.2 8.8 91 0.7 SSE 9 11 5 6 - - 0.0
16/02:00am 10.4 8.5 9.0 91 0.7 SSE 9 11 5 6 - - 0.0
16/01:30am 10.7 8.8 9.1 90 0.8 SSE 9 11 5 6 - - 0.0
16/01:00am 10.7 9.2 9.1 90 0.8 SSE 7 9 4 5 - - 0.0
16/12:30am 10.6 9.2 8.7 88 0.9 SSE 6 7 3 4 - - 0.0
16/12:00am 11.4 10.1 9.3 87 1.1 S 6 7 3 4 - - 0.0
 
Date/Time
EST
Temp
°C
App
Temp
°C
Dew
Point
Rel
Hum
%
Delta-T
°C
Wind Press
QNH
hPa
Press
MSL
hPa
Rain
since 9 am
mm
Dir
 
Spd
km/h
Gust
km/h
Spd
kts
Gust
kts
15/11:30pm 12.0 10.6 9.6 85 1.2 SSE 7 9 4 5 - - 0.0
15/11:00pm 12.2 10.5 9.8 85 1.2 SSW 9 13 5 7 - - 0.0
15/10:30pm 11.6 9.9 8.5 81 1.5 SSW 7 9 4 5 - - 0.0
15/10:00pm 12.7 11.2 9.0 78 1.9 S 7 9 4 5 - - 0.0
15/09:30pm 13.0 11.0 8.7 75 2.2 SSW 9 11 5 6 - - 0.0
15/09:00pm 12.3 10.5 9.3 82 1.5 SSW 9 11 5 6 - - 0.0
15/08:30pm 11.2 11.0 8.9 86 1.1 CALM 0 0 0 0 - - 0.0
15/08:00pm 11.4 10.7 8.6 83 1.4 WSW 2 6 1 3 - - 0.0
15/07:30pm 11.9 10.5 8.7 81 1.6 SW 6 7 3 4 - - 0.0
15/07:00pm 13.1 13.0 9.4 78 1.9 CALM 0 0 0 0 - - 0.0
15/06:30pm 14.1 14.0 9.5 74 2.4 CALM 0 0 0 0 - - 0.0
15/06:00pm 15.8 15.5 8.8 63 3.6 CALM 0 0 0 0 - - 0.0
15/05:30pm 18.6 18.2 8.3 51 5.3 CALM 0 6 0 3 - - 0.0
15/05:00pm 19.9 18.2 7.6 45 6.3 WSW 6 9 3 5 - - 0.0
15/04:30pm 19.9 18.6 7.6 45 6.3 SW 4 11 2 6 - - 0.0
15/04:00pm 20.2 17.8 7.2 43 6.7 SW 9 15 5 8 - - 0.0
15/03:30pm 20.1 17.5 7.8 45 6.4 WSW 11 17 6 9 - - 0.0
15/03:00pm 21.3 21.1 8.9 45 6.6 CALM 0 6 0 3 - - 0.0
15/02:30pm 20.1 18.5 7.8 45 6.4 W 6 13 3 7 - - 0.0
15/02:00pm 19.6 17.7 7.4 45 6.3 SSW 7 15 4 8 - - 0.0
15/01:30pm 19.9 18.7 7.9 46 6.2 S 4 7 2 4 - - 0.0
15/01:00pm 19.1 17.7 8.7 51 5.4 SSW 6 11 3 6 - - 0.0
15/12:30pm 18.8 17.3 8.5 51 5.4 SE 6 9 3 5 - - 0.0
15/12:00pm 19.0 17.8 8.1 49 5.6 N 4 9 2 5 - - 0.0
15/11:30am 18.4 16.9 8.4 52 5.2 N 6 13 3 7 - - 0.0
15/11:00am 17.8 16.3 8.6 55 4.8 E 6 11 3 6 - - 0.0
15/10:30am 16.8 15.1 7.7 55 4.6 ESE 6 11 3 6 - - 0.0
15/10:00am 15.8 14.3 8.5 62 3.7 SSE 6 13 3 7 - - 0.0
15/09:30am 14.8 12.8 8.5 66 3.2 SSE 9 13 5 7 - - 0.0
15/09:00am 13.6 11.1 8.2 70 2.7 S 11 17 6 9 - - 0.0
15/08:30am 12.3 10.1 8.0 75 2.1 SSE 9 13 5 7 - - 0.0
15/08:00am 10.8 8.2 7.7 81 1.5 S 11 13 6 7 - - 0.0
15/07:30am 9.2 6.8 6.8 85 1.1 SSE 9 11 5 6 - - 0.0
15/07:00am 8.4 5.8 6.2 86 1.0 SSE 9 11 5 6 - - 0.0
15/06:30am 8.3 6.1 6.1 86 1.0 S 7 9 4 5 - - 0.0
15/06:00am 8.6 6.0 6.2 85 1.1 S 9 9 5 5 - - 0.0
15/05:30am 8.7 6.1 6.2 84 1.2 S 9 11 5 6 - - 0.0
15/05:00am 8.8 6.2 6.2 84 1.2 S 9 11 5 6 - - 0.0
15/04:30am 9.1 6.6 6.4 83 1.3 SSE 9 11 5 6 - - 0.0
15/04:00am 9.1 6.6 6.4 83 1.3 S 9 11 5 6 - - 0.0
15/03:30am 9.3 6.8 6.6 83 1.3 S 9 11 5 6 - - 0.0
15/03:00am 9.6 7.2 6.9 83 1.3 S 9 13 5 7 - - 0.0
15/02:30am 9.6 7.1 6.7 82 1.4 S 9 11 5 6 - - 0.0
15/02:00am 10.2 7.4 7.1 81 1.5 SSE 11 13 6 7 - - 0.0
15/01:30am 10.7 7.6 7.2 79 1.7 SSE 13 15 7 8 - - 0.0
15/01:00am 10.9 7.8 7.4 79 1.7 S 13 17 7 9 - - 0.0
15/12:30am 11.0 8.3 7.3 78 1.8 SSE 11 15 6 8 - - 0.0
15/12:00am 10.9 8.5 7.2 78 1.8 S 9 11 5 6 - - 0.0
 
Date/Time
EST
Temp
°C
App
Temp
°C
Dew
Point
Rel
Hum
%
Delta-T
°C
Wind Press
QNH
hPa
Press
MSL
hPa
Rain
since 9 am
mm
Dir
 
Spd
km/h
Gust
km/h
Spd
kts
Gust
kts
14/11:30pm 11.4 8.7 7.3 76 2.0 S 11 13 6 7 - - 0.0
14/11:00pm 12.0 9.0 7.5 74 2.2 S 13 15 7 8 - - 0.0
14/10:30pm 12.5 9.5 7.6 72 2.4 S 13 17 7 9 - - 0.0
14/10:00pm 12.7 9.7 7.8 72 2.4 S 13 15 7 8 - - 0.0
14/09:30pm 12.9 10.3 7.8 71 2.5 S 11 15 6 8 - - 0.0
14/09:00pm 13.2 10.7 8.1 71 2.5 S 11 13 6 7 - - 0.0
14/08:30pm 13.7 11.5 7.9 68 2.9 S 9 11 5 6 - - 0.0
14/08:00pm 14.4 12.2 7.7 64 3.3 S 9 11 5 6 - - 0.0
14/07:30pm 14.5 11.9 7.8 64 3.3 SW 11 13 6 7 - - 0.0
14/07:00pm 13.3 11.8 8.4 72 2.5 WSW 6 7 3 4 - - 0.0
14/06:30pm 14.4 12.9 8.6 68 2.9 WSW 6 7 3 4 - - 0.0
14/06:00pm 16.7 15.1 7.9 56 4.5 SW 6 7 3 4 - - 0.0
14/05:30pm 18.3 16.6 8.3 52 5.2 S 7 11 4 6 - - 0.0
14/05:00pm 19.2 16.6 7.6 47 6.0 S 11 17 6 9 - - 0.0
14/04:30pm 19.8 17.4 7.2 44 6.4 S 9 13 5 7 - - 0.0
14/04:00pm 20.0 17.5 8.4 47 6.1 S 11 15 6 8 - - 0.0
14/03:30pm 20.0 17.4 6.0 40 7.0 S 9 15 5 8 - - 0.0
14/03:00pm 20.2 18.2 7.2 43 6.7 S 7 19 4 10 - - 0.0
14/02:30pm 20.1 17.9 7.8 45 6.4 SSW 9 17 5 9 - - 0.0
14/02:00pm 20.0 18.3 7.7 45 6.4 NW 6 9 3 5 - - 0.0
14/01:30pm 19.8 17.3 6.5 42 6.7 S 9 15 5 8 - - 0.0
14/01:00pm 19.7 18.5 9.6 52 5.4 S 6 11 3 6 - - 0.0
14/12:30pm 19.3 17.7 8.0 48 5.8 SE 6 11 3 6 - - 0.0
14/12:00pm 19.0 17.3 7.4 47 5.9 ESE 6 13 3 7 - - 0.0
14/11:30am 17.8 15.2 6.0 46 5.8 ESE 9 15 5 8 - - 0.0
14/11:00am 17.3 15.2 8.2 55 4.7 SSE 9 15 5 8 - - 0.0
14/10:30am 16.6 14.6 8.6 59 4.1 S 9 13 5 7 - - 0.0
14/10:00am 15.8 13.4 8.5 62 3.7 SSE 11 17 6 9 - - 0.0
14/09:59am - - - - - - - - - - - - -
14/09:30am 14.8 12.0 8.7 67 3.1 SSE 13 17 7 9 - - 0.0
14/09:00am 15.9 13.4 8.4 61 3.8 SSE 11 17 6 9 - - 0.0
14/08:30am 12.7 10.2 8.4 75 2.1 S 11 15 6 8 - - 0.0
14/08:00am 11.5 9.0 8.4 81 1.5 S 11 17 6 9 - - 0.0

Other Formats:

Comma delimited format used in spreadsheet applications
http://www.bom.gov.au/fwo/IDV60801/IDV60801.95836.axf

JavaScript Object Notation format (JSON) in row-major order
http://www.bom.gov.au/fwo/IDV60801/IDV60801.95836.json